createdAt,value
2018-11-29T00:01:10.693Z,21.40
2018-11-29T00:03:42.881Z,21.30
2018-11-29T00:06:15.097Z,21.30
2018-11-29T00:08:47.722Z,21.20
2018-11-29T00:11:20.307Z,21.20
2018-11-29T00:13:53.588Z,21.20
2018-11-29T00:16:26.302Z,21.10
2018-11-29T00:18:58.864Z,21.10
2018-11-29T00:21:32.688Z,21.10
2018-11-29T00:24:05.136Z,21.10
2018-11-29T00:26:38.263Z,21.10
2018-11-29T00:29:11.345Z,21.10
2018-11-29T00:31:44.732Z,21.10
2018-11-29T00:34:17.477Z,21.00
2018-11-29T00:36:51.555Z,21.10
2018-11-29T00:39:24.604Z,21.10
2018-11-29T00:41:57.472Z,21.10
2018-11-29T00:44:30.307Z,21.10
2018-11-29T00:47:03.971Z,21.10
2018-11-29T00:49:36.727Z,21.20
2018-11-29T00:52:09.361Z,21.10
2018-11-29T00:54:42.143Z,21.10
2018-11-29T00:57:16.262Z,21.00
2018-11-29T00:59:49.621Z,20.90
2018-11-29T01:02:22.723Z,20.90
2018-11-29T01:04:57.440Z,20.90
2018-11-29T01:07:30.772Z,20.90
2018-11-29T01:10:03.579Z,20.80
2018-11-29T01:12:37.227Z,20.80
2018-11-29T01:15:11.942Z,20.80
2018-11-29T01:17:45.792Z,20.70
2018-11-29T01:20:22.008Z,20.70
2018-11-29T01:22:54.874Z,20.70
2018-11-29T01:25:27.740Z,20.70
2018-11-29T01:28:00.302Z,20.60
2018-11-29T01:33:21.867Z,20.50
2018-11-29T01:35:54.058Z,20.50
2018-11-29T01:38:27.243Z,20.50
2018-11-29T01:40:59.946Z,20.40
2018-11-29T01:43:32.737Z,20.40
2018-11-29T01:46:06.069Z,20.60
2018-11-29T01:48:39.122Z,20.50
2018-11-29T01:51:11.692Z,20.50
2018-11-29T01:53:44.390Z,20.50
2018-11-29T01:56:17.177Z,20.50
2018-11-29T01:58:51.867Z,20.50
2018-11-29T02:01:25.096Z,20.40
2018-11-29T02:03:58.750Z,20.40
2018-11-29T02:06:31.076Z,20.30
2018-11-29T02:09:05.016Z,20.30
2018-11-29T02:11:38.118Z,20.30
2018-11-29T02:14:11.187Z,20.20
2018-11-29T02:16:45.303Z,20.20
2018-11-29T02:19:18.545Z,20.20
2018-11-29T02:22:02.062Z,20.10
2018-11-29T02:24:34.386Z,20.00
2018-11-29T02:27:09.594Z,19.90
2018-11-29T02:29:42.628Z,19.90
2018-11-29T02:32:15.551Z,19.90
2018-11-29T02:34:48.451Z,19.90
2018-11-29T02:40:01.426Z,19.90
2018-11-29T02:42:34.058Z,20.00
2018-11-29T02:45:07.800Z,20.00
2018-11-29T02:47:42.042Z,19.90
2018-11-29T02:50:15.508Z,19.90
2018-11-29T02:52:48.536Z,19.70
2018-11-29T02:55:22.540Z,19.70
2018-11-29T02:57:55.539Z,19.70
2018-11-29T03:00:28.357Z,19.60
2018-11-29T03:03:01.400Z,19.50
2018-11-29T03:05:33.749Z,19.60
2018-11-29T03:08:07.729Z,19.50
2018-11-29T03:10:40.083Z,19.50
2018-11-29T03:13:12.980Z,19.40
2018-11-29T03:15:45.482Z,19.40
2018-11-29T03:18:18.521Z,19.40
2018-11-29T03:20:53.630Z,19.40
2018-11-29T03:23:25.971Z,19.40
2018-11-29T03:25:58.255Z,19.30
2018-11-29T03:28:30.447Z,19.30
2018-11-29T03:31:03.065Z,19.30
2018-11-29T03:33:35.474Z,19.40
2018-11-29T03:36:11.644Z,19.40
2018-11-29T03:38:45.077Z,19.40
2018-11-29T03:44:03.824Z,19.30
2018-11-29T03:46:36.272Z,19.20
2018-11-29T03:49:09.227Z,19.10
2018-11-29T03:51:42.911Z,19.00
2018-11-29T03:54:16.856Z,19.00
2018-11-29T03:56:49.543Z,18.90
2018-11-29T03:59:23.039Z,18.90
2018-11-29T04:01:57.228Z,18.80
2018-11-29T04:04:29.740Z,18.80
2018-11-29T04:07:02.857Z,18.70
2018-11-29T04:09:35.060Z,18.70
2018-11-29T04:12:11.933Z,18.70
2018-11-29T04:14:45.889Z,18.70
2018-11-29T04:17:19.289Z,18.70
2018-11-29T04:19:52.631Z,18.70
2018-11-29T04:22:25.675Z,18.70
2018-11-29T04:24:58.453Z,18.70
2018-11-29T04:27:31.377Z,18.70
2018-11-29T04:30:04.189Z,18.70
2018-11-29T04:32:40.977Z,18.70
2018-11-29T04:35:14.523Z,18.70
2018-11-29T04:37:47.306Z,18.60
2018-11-29T04:40:20.418Z,18.60
2018-11-29T04:42:53.997Z,18.60
2018-11-29T04:45:26.207Z,18.70
2018-11-29T04:47:59.271Z,18.70
2018-11-29T04:50:31.446Z,18.70
2018-11-29T04:53:03.766Z,18.70
2018-11-29T04:55:36.859Z,18.70
2018-11-29T04:58:10.540Z,18.80
2018-11-29T05:00:43.405Z,18.80
2018-11-29T05:03:16.105Z,18.80
2018-11-29T05:05:49.084Z,18.80
2018-11-29T05:08:21.339Z,18.80
2018-11-29T05:10:53.519Z,18.70
2018-11-29T05:13:26.301Z,18.70
2018-11-29T05:15:58.497Z,18.70
2018-11-29T05:18:31.100Z,18.70
2018-11-29T05:21:03.687Z,18.70
2018-11-29T05:23:36.855Z,18.70
2018-11-29T05:26:11.987Z,18.80
2018-11-29T05:28:45.257Z,18.70
2018-11-29T05:31:17.861Z,18.70
2018-11-29T05:33:52.041Z,18.60
2018-11-29T05:36:25.968Z,18.50
2018-11-29T05:38:58.230Z,18.40
2018-11-29T05:41:30.411Z,18.30
2018-11-29T05:44:03.905Z,18.30
2018-11-29T05:46:36.825Z,18.30
2018-11-29T05:49:09.858Z,18.20
2018-11-29T05:51:42.604Z,18.10
2018-11-29T05:54:15.387Z,18.10
2018-11-29T05:56:48.846Z,18.10
2018-11-29T05:59:21.428Z,18.20
2018-11-29T06:01:55.577Z,18.20
2018-11-29T06:04:29.499Z,18.10
2018-11-29T06:07:02.622Z,18.10
2018-11-29T06:09:35.756Z,18.10
2018-11-29T06:12:08.328Z,18.10
2018-11-29T06:14:40.970Z,18.10
2018-11-29T06:17:13.581Z,18.20
2018-11-29T06:19:46.278Z,18.20
2018-11-29T06:22:18.950Z,18.20
2018-11-29T06:24:52.314Z,18.20
2018-11-29T06:27:25.692Z,18.20
2018-11-29T06:29:58.988Z,18.20
2018-11-29T06:32:31.774Z,18.30
2018-11-29T06:35:05.139Z,18.20
2018-11-29T06:37:38.746Z,18.20
2018-11-29T06:40:14.343Z,18.20
2018-11-29T06:42:47.218Z,18.20
2018-11-29T06:45:22.633Z,18.20
2018-11-29T06:47:55.698Z,18.20
2018-11-29T06:50:29.640Z,18.20
2018-11-29T06:53:02.802Z,18.30
2018-11-29T06:55:35.119Z,18.30
2018-11-29T06:58:09.216Z,18.30
2018-11-29T07:00:42.111Z,18.20
2018-11-29T07:03:15.846Z,18.30
2018-11-29T07:05:48.645Z,18.30
2018-11-29T07:08:21.252Z,18.20
2018-11-29T07:10:54.450Z,18.30
2018-11-29T07:13:27.341Z,18.30
2018-11-29T07:16:00.638Z,18.30
2018-11-29T07:18:33.307Z,18.20
2018-11-29T07:21:18.830Z,18.20
2018-11-29T07:23:51.631Z,18.10
2018-11-29T07:26:24.114Z,18.20
2018-11-29T07:28:56.848Z,18.20
2018-11-29T07:31:29.800Z,18.10
2018-11-29T07:34:02.938Z,18.10
2018-11-29T07:36:35.359Z,18.10
2018-11-29T07:39:10.495Z,18.10
2018-11-29T07:41:43.065Z,18.00
2018-11-29T07:44:15.775Z,18.00
2018-11-29T07:46:48.652Z,17.90
2018-11-29T07:49:20.822Z,17.90
2018-11-29T07:51:53.484Z,18.00
2018-11-29T07:54:26.261Z,18.00
2018-11-29T07:57:02.877Z,18.00
2018-11-29T07:59:35.886Z,18.00
2018-11-29T08:02:08.164Z,18.00
2018-11-29T08:04:41.054Z,17.90
2018-11-29T08:07:14.571Z,17.90
2018-11-29T08:09:47.731Z,18.00
2018-11-29T08:12:21.547Z,18.00
2018-11-29T08:14:54.720Z,18.00
2018-11-29T08:17:26.956Z,18.00
2018-11-29T08:19:59.762Z,17.90
2018-11-29T08:22:32.052Z,18.00
2018-11-29T08:25:04.899Z,18.00
2018-11-29T08:27:37.995Z,18.00
2018-11-29T08:30:15.591Z,18.00
2018-11-29T08:32:49.602Z,18.00
2018-11-29T08:35:22.935Z,18.10
2018-11-29T08:37:55.768Z,18.20
2018-11-29T08:40:27.998Z,18.10
2018-11-29T08:43:02.016Z,18.20
2018-11-29T08:45:34.234Z,18.20
2018-11-29T08:48:06.753Z,18.20
2018-11-29T08:50:38.961Z,18.10
2018-11-29T08:53:12.364Z,18.10
2018-11-29T08:55:45.394Z,18.10
2018-11-29T08:58:18.988Z,18.20
2018-11-29T09:00:51.439Z,18.30
2018-11-29T09:03:25.805Z,18.20
2018-11-29T09:05:58.400Z,18.20
2018-11-29T09:08:30.954Z,18.20
2018-11-29T09:11:03.293Z,18.30
2018-11-29T09:13:35.517Z,18.20
2018-11-29T09:16:07.922Z,18.20
2018-11-29T09:18:40.900Z,18.20
2018-11-29T09:21:13.151Z,18.20
2018-11-29T09:23:46.678Z,18.20
2018-11-29T09:26:19.106Z,18.20
2018-11-29T09:28:51.535Z,18.10
2018-11-29T09:31:23.863Z,18.10
2018-11-29T09:33:56.052Z,18.00
2018-11-29T09:36:28.253Z,18.00
2018-11-29T09:39:02.698Z,18.00
2018-11-29T09:41:35.391Z,17.90
2018-11-29T09:44:07.698Z,17.90
2018-11-29T09:46:39.961Z,17.90
2018-11-29T09:49:12.169Z,17.90
2018-11-29T09:51:44.467Z,17.90
2018-11-29T09:54:16.681Z,18.10
2018-11-29T09:56:49.459Z,18.10
2018-11-29T09:59:22.802Z,18.00
2018-11-29T10:01:56.230Z,17.90
2018-11-29T10:04:28.501Z,17.90
2018-11-29T10:07:03.280Z,17.90
2018-11-29T10:09:36.678Z,17.90
2018-11-29T10:12:09.446Z,17.90
2018-11-29T10:14:41.700Z,17.90
2018-11-29T10:17:16.141Z,17.90
2018-11-29T10:19:49.016Z,17.90
2018-11-29T10:22:23.613Z,17.90
2018-11-29T10:24:56.821Z,17.90
2018-11-29T10:27:30.313Z,17.90
2018-11-29T10:30:04.024Z,17.90
2018-11-29T10:32:36.416Z,17.80
2018-11-29T10:35:11.779Z,17.80
2018-11-29T10:37:44.443Z,17.80
2018-11-29T10:40:16.711Z,17.80
2018-11-29T10:42:49.421Z,17.80
2018-11-29T10:45:22.654Z,17.90
2018-11-29T10:47:56.677Z,17.90
2018-11-29T10:50:29.887Z,18.00
2018-11-29T10:53:03.403Z,18.00
2018-11-29T10:55:36.298Z,18.00
2018-11-29T10:58:09.039Z,18.00
2018-11-29T11:00:46.256Z,18.00
2018-11-29T11:03:21.371Z,18.00
2018-11-29T11:05:55.048Z,18.00
2018-11-29T11:08:28.239Z,18.00
2018-11-29T11:11:04.808Z,18.00
2018-11-29T11:13:38.377Z,18.00
2018-11-29T11:16:11.501Z,18.00
2018-11-29T11:18:43.776Z,18.00
2018-11-29T11:21:16.024Z,18.00
2018-11-29T11:23:48.606Z,18.00
2018-11-29T11:26:22.295Z,18.00
2018-11-29T11:28:55.672Z,18.00
2018-11-29T11:31:31.027Z,18.00
2018-11-29T11:34:01.002Z,18.00
2018-11-29T11:36:34.205Z,18.00
2018-11-29T11:39:09.099Z,18.00
2018-11-29T11:41:43.446Z,18.00
2018-11-29T11:44:17.435Z,18.00
2018-11-29T11:46:52.001Z,17.90
2018-11-29T11:49:24.248Z,18.00
2018-11-29T11:51:58.164Z,18.00
2018-11-29T11:54:34.975Z,18.00
2018-11-29T11:57:07.642Z,18.10
2018-11-29T11:59:40.303Z,18.10
2018-11-29T12:02:13.303Z,18.10
2018-11-29T12:04:48.739Z,18.10
2018-11-29T12:07:18.436Z,18.20
2018-11-29T12:09:52.339Z,18.10
2018-11-29T12:12:36.850Z,18.10
2018-11-29T12:15:12.381Z,18.10
2018-11-29T12:17:45.837Z,18.10
2018-11-29T12:20:25.380Z,18.10
2018-11-29T12:23:04.564Z,18.10
2018-11-29T12:25:37.390Z,18.00
2018-11-29T12:28:10.589Z,18.00
2018-11-29T12:30:49.558Z,18.00
2018-11-29T12:33:22.480Z,18.10
2018-11-29T12:35:56.930Z,18.10
2018-11-29T12:38:31.835Z,18.10
2018-11-29T12:41:04.153Z,18.10
2018-11-29T12:43:37.104Z,18.10
2018-11-29T12:46:11.098Z,18.30
2018-11-29T12:48:43.410Z,18.30
2018-11-29T12:51:16.786Z,18.30
2018-11-29T12:53:49.562Z,18.40
2018-11-29T12:56:22.151Z,18.40
2018-11-29T12:58:59.977Z,18.50
2018-11-29T13:01:34.223Z,18.40
2018-11-29T13:04:06.891Z,18.40
2018-11-29T13:06:39.354Z,18.40
2018-11-29T13:09:14.079Z,18.40
2018-11-29T13:11:46.661Z,18.40
2018-11-29T13:14:19.177Z,18.50
2018-11-29T13:16:52.087Z,18.60
2018-11-29T13:19:35.713Z,18.60
2018-11-29T13:22:24.196Z,18.70
2018-11-29T13:24:56.637Z,18.80
2018-11-29T13:27:38.881Z,18.70
2018-11-29T13:30:14.641Z,18.70
2018-11-29T13:32:47.292Z,18.70
2018-11-29T13:35:26.694Z,18.70
2018-11-29T13:38:18.124Z,18.70
2018-11-29T13:40:56.238Z,18.70
2018-11-29T13:43:28.451Z,18.80
2018-11-29T13:46:00.766Z,18.80
2018-11-29T13:48:33.032Z,18.80
2018-11-29T13:51:15.228Z,18.80
2018-11-29T13:53:48.453Z,18.80
2018-11-29T13:56:21.688Z,18.80
2018-11-29T14:01:33.999Z,18.90
2018-11-29T14:04:07.481Z,18.90
2018-11-29T14:06:40.291Z,19.00
2018-11-29T14:09:14.031Z,19.00
2018-11-29T14:11:52.752Z,19.00
2018-11-29T14:14:24.980Z,18.90
2018-11-29T14:17:01.799Z,19.00
2018-11-29T14:19:38.125Z,19.00
2018-11-29T14:22:11.359Z,18.90
2018-11-29T14:24:43.779Z,18.90
2018-11-29T14:27:17.745Z,19.10
2018-11-29T14:29:52.383Z,19.20
2018-11-29T14:32:33.673Z,19.30
2018-11-29T14:44:21.451Z,19.60
2018-11-29T14:46:53.989Z,19.70
2018-11-29T14:49:35.981Z,19.70
2018-11-29T15:08:53.993Z,19.90
2018-11-29T15:11:29.324Z,19.90
2018-11-29T15:14:08.924Z,19.90
2018-11-29T15:21:29.598Z,20.00
2018-11-29T15:24:26.073Z,20.20
2018-11-29T15:27:13.320Z,20.30
2018-11-29T15:29:46.475Z,20.40
2018-11-29T15:32:27.175Z,20.50
2018-11-29T15:35:00.710Z,20.50
2018-11-29T15:37:33.145Z,20.50
2018-11-29T15:40:05.670Z,20.50
2018-11-29T15:42:38.785Z,20.50
2018-11-29T15:45:13.890Z,20.60
2018-11-29T15:47:46.314Z,20.70
2018-11-29T15:50:36.999Z,20.70
2018-11-29T15:53:30.094Z,20.70
2018-11-29T15:56:21.400Z,20.60
2018-11-29T15:59:07.713Z,20.50
2018-11-29T16:02:05.071Z,20.60
2018-11-29T16:08:18.996Z,20.60
2018-11-29T16:17:16.750Z,21.00
2018-11-29T16:19:49.667Z,21.00
2018-11-29T16:22:27.618Z,21.00
2018-11-29T16:25:00.232Z,21.10
2018-11-29T16:27:36.753Z,21.20
2018-11-29T16:30:22.422Z,21.30
2018-11-29T16:33:02.312Z,21.40
2018-11-29T16:35:37.218Z,21.50
2018-11-29T16:38:12.559Z,21.70
2018-11-29T16:40:51.063Z,21.90
2018-11-29T16:43:24.265Z,21.90
2018-11-29T16:46:14.651Z,22.10
2018-11-29T16:48:47.016Z,22.20
2018-11-29T16:51:31.743Z,22.30
2018-11-29T16:54:05.863Z,22.30
2018-11-29T16:56:40.518Z,22.50
2018-11-29T16:59:13.662Z,22.60
2018-11-29T17:01:47.414Z,22.60
2018-11-29T17:04:20.362Z,22.80
2018-11-29T17:06:53.285Z,22.80
2018-11-29T17:09:25.631Z,22.80
2018-11-29T17:14:05.511Z,22.90
2018-11-29T17:16:37.852Z,23.00
2018-11-29T17:19:10.588Z,23.00
2018-11-29T17:21:49.017Z,23.10
2018-11-29T17:24:22.947Z,23.10
2018-11-29T17:26:56.110Z,23.00
2018-11-29T17:29:29.955Z,22.90
2018-11-29T17:32:02.694Z,22.80
2018-11-29T17:34:36.176Z,22.70
2018-11-29T17:37:09.990Z,22.70
2018-11-29T17:39:42.249Z,22.80
2018-11-29T17:42:15.038Z,23.10
2018-11-29T17:44:48.148Z,23.30
2018-11-29T17:47:22.259Z,23.30
2018-11-29T17:49:55.712Z,23.40
2018-11-29T17:52:28.986Z,23.30
2018-11-29T17:55:06.320Z,23.40
2018-11-29T17:57:39.256Z,23.50
2018-11-29T18:00:16.833Z,23.60
2018-11-29T18:02:49.928Z,23.80
2018-11-29T18:05:22.447Z,24.00
2018-11-29T18:07:54.968Z,24.20
2018-11-29T18:10:31.370Z,24.20
2018-11-29T18:13:10.008Z,24.30
2018-11-29T18:15:43.337Z,24.20
2018-11-29T18:18:15.916Z,24.10
2018-11-29T18:20:48.798Z,24.00
2018-11-29T18:23:23.335Z,23.80
2018-11-29T18:25:55.520Z,23.70
2018-11-29T18:28:28.802Z,23.70
2018-11-29T18:31:03.478Z,23.50
2018-11-29T18:33:36.298Z,23.40
2018-11-29T18:36:14.188Z,23.30
2018-11-29T18:38:44.222Z,23.10
2018-11-29T18:41:28.165Z,23.00
2018-11-29T18:44:00.800Z,22.90
2018-11-29T18:46:34.322Z,22.80
2018-11-29T18:49:11.309Z,22.70
2018-11-29T18:51:46.796Z,22.50
2018-11-29T18:54:19.550Z,22.30
2018-11-29T18:56:53.199Z,22.20
2018-11-29T18:59:25.762Z,22.10
2018-11-29T19:01:58.204Z,22.20
2018-11-29T19:04:30.792Z,22.10
2018-11-29T19:07:03.279Z,22.00
2018-11-29T19:09:35.495Z,22.00
2018-11-29T19:12:13.511Z,22.00
2018-11-29T19:44:56.839Z,21.90
2018-11-29T20:00:37.507Z,22.10
2018-11-29T20:03:21.394Z,22.30
2018-11-29T20:05:54.042Z,22.60
2018-11-29T20:08:26.708Z,22.90
2018-11-29T20:11:03.559Z,22.90
2018-11-29T20:13:38.380Z,23.00
2018-11-29T20:16:11.149Z,23.00
2018-11-29T20:18:44.521Z,23.00
2018-11-29T20:21:18.354Z,23.00
2018-11-29T20:23:51.457Z,23.20
2018-11-29T20:26:24.667Z,23.20
2018-11-29T20:28:57.781Z,23.20
2018-11-29T20:31:39.813Z,23.30
2018-11-29T20:34:13.031Z,23.20
2018-11-29T20:36:46.138Z,23.00
2018-11-29T20:39:21.797Z,23.10
2018-11-29T20:41:54.891Z,23.00
2018-11-29T20:44:27.866Z,23.00
2018-11-29T20:47:00.977Z,23.00
2018-11-29T20:49:33.799Z,23.00
2018-11-29T20:52:10.851Z,23.00
2018-11-29T20:54:43.882Z,23.20
2018-11-29T20:57:17.691Z,23.30
2018-11-29T20:59:49.974Z,23.60
2018-11-29T21:02:28.296Z,23.90
2018-11-29T21:05:00.853Z,24.00
2018-11-29T21:07:40.250Z,24.00
2018-11-29T21:10:32.211Z,24.20
2018-11-29T21:13:42.270Z,24.60
2018-11-29T21:16:20.075Z,24.90
2018-11-29T21:18:52.407Z,25.50
2018-11-29T21:21:27.816Z,25.70
2018-11-29T21:24:05.246Z,25.80
2018-11-29T21:26:38.281Z,25.80
2018-11-29T21:29:12.360Z,25.80
2018-11-29T21:31:45.067Z,25.80
2018-11-29T21:34:18.872Z,25.70
2018-11-29T21:36:51.497Z,25.70
2018-11-29T21:39:25.133Z,25.60
2018-11-29T21:41:58.997Z,25.70
2018-11-29T21:44:33.488Z,25.90
2018-11-29T21:47:06.358Z,25.90
2018-11-29T21:49:40.537Z,25.80
2018-11-29T21:52:18.211Z,25.90
2018-11-29T21:54:51.101Z,25.80
2018-11-29T21:57:23.842Z,25.80
2018-11-29T21:59:58.589Z,25.70
2018-11-29T22:02:31.567Z,25.60
2018-11-29T22:05:05.044Z,25.80
2018-11-29T22:07:38.673Z,25.80
2018-11-29T22:10:21.942Z,25.60
2018-11-29T22:13:00.738Z,25.30
2018-11-29T22:15:32.693Z,25.20
2018-11-29T22:18:15.729Z,25.20
2018-11-29T22:20:48.613Z,25.20
2018-11-29T22:23:21.460Z,25.10
2018-11-29T22:25:54.575Z,25.00
2018-11-29T22:28:29.049Z,24.90
2018-11-29T22:31:12.262Z,24.90
2018-11-29T22:33:45.870Z,24.80
2018-11-29T22:36:18.552Z,24.60
2018-11-29T22:38:51.140Z,24.40
2018-11-29T22:41:24.739Z,24.20
2018-11-29T22:43:58.086Z,23.90
2018-11-29T22:46:30.966Z,23.70
2018-11-29T22:49:06.573Z,23.60
2018-11-29T22:51:39.377Z,23.50
2018-11-29T22:54:13.122Z,23.40
2018-11-29T22:56:45.817Z,23.40
2018-11-29T22:59:18.456Z,23.30
2018-11-29T23:01:51.224Z,23.40
2018-11-29T23:04:24.006Z,23.40
2018-11-29T23:06:57.103Z,23.40
2018-11-29T23:09:29.650Z,23.30
2018-11-29T23:12:03.036Z,23.20
2018-11-29T23:14:37.905Z,23.20
2018-11-29T23:17:11.123Z,23.10
2018-11-29T23:19:44.477Z,23.10
2018-11-29T23:22:17.242Z,23.00
2018-11-29T23:24:51.847Z,23.00
2018-11-29T23:27:24.732Z,22.90
2018-11-29T23:29:57.427Z,22.90
2018-11-29T23:32:30.291Z,22.90
2018-11-29T23:35:03.293Z,22.80
2018-11-29T23:37:37.344Z,22.70
2018-11-29T23:40:13.102Z,22.60
2018-11-29T23:42:46.094Z,22.60
2018-11-29T23:45:19.130Z,22.50
2018-11-29T23:47:53.131Z,22.40
2018-11-29T23:50:26.566Z,22.30
2018-11-29T23:52:59.236Z,22.30
2018-11-29T23:55:33.319Z,22.20
2018-11-29T23:58:07.371Z,22.20
